createdAt,value
2023-12-15T00:00:56.981Z,100804.69
2023-12-15T00:03:46.730Z,100801.75
2023-12-15T00:06:18.316Z,100801.34
2023-12-15T00:08:49.752Z,100803.41
2023-12-15T00:11:21.151Z,100812.60
2023-12-15T00:13:52.852Z,100819.67
2023-12-15T00:16:27.284Z,100822.56
2023-12-15T00:18:58.794Z,100826.91
2023-12-15T00:21:30.224Z,100833.59
2023-12-15T00:24:03.661Z,100839.39
2023-12-15T00:26:35.003Z,100842.38
2023-12-15T00:29:07.258Z,100846.46
2023-12-15T00:31:38.642Z,100848.61
2023-12-15T00:34:09.982Z,100844.25
2023-12-15T00:36:41.448Z,100842.52
2023-12-15T00:39:13.092Z,100837.35
2023-12-15T00:41:44.425Z,100836.04
2023-12-15T00:44:15.773Z,100842.95
2023-12-15T00:46:47.199Z,100847.77
2023-12-15T00:49:18.593Z,100853.29
2023-12-15T00:51:50.002Z,100853.88
2023-12-15T00:54:21.272Z,100861.21
2023-12-15T00:56:52.599Z,100866.67
2023-12-15T00:59:24.041Z,100869.46
2023-12-15T01:01:55.432Z,100876.84
2023-12-15T01:04:26.947Z,100880.89
2023-12-15T01:06:58.363Z,100881.95
2023-12-15T01:09:29.716Z,100887.94
2023-12-15T01:12:01.773Z,100890.90
2023-12-15T01:14:33.076Z,100895.77
2023-12-15T01:17:04.694Z,100903.89
2023-12-15T01:19:36.170Z,100906.74
2023-12-15T01:22:07.735Z,100906.79
2023-12-15T01:24:39.146Z,100909.78
2023-12-15T01:27:10.693Z,100913.95
2023-12-15T01:29:42.230Z,100914.71
2023-12-15T01:32:13.867Z,100922.64
2023-12-15T01:34:45.262Z,100927.33
2023-12-15T01:37:16.594Z,100921.30
2023-12-15T01:39:47.899Z,100923.47
2023-12-15T01:42:19.213Z,100925.54
2023-12-15T01:44:50.526Z,100924.36
2023-12-15T01:47:26.034Z,100929.21
2023-12-15T01:49:57.764Z,100935.37
2023-12-15T01:52:30.128Z,100938.21
2023-12-15T01:55:01.461Z,100931.32
2023-12-15T01:57:33.106Z,100936.67
2023-12-15T02:00:08.756Z,100941.39
2023-12-15T02:02:40.212Z,100952.45
2023-12-15T02:05:11.703Z,100954.98
2023-12-15T02:07:43.104Z,100960.42
2023-12-15T02:10:14.398Z,100965.85
2023-12-15T02:12:45.727Z,100966.68
2023-12-15T02:15:17.406Z,100970.84
2023-12-15T02:17:48.807Z,100963.83
2023-12-15T02:20:20.414Z,100967.88
2023-12-15T02:22:51.855Z,100968.17
2023-12-15T02:25:23.116Z,100967.56
2023-12-15T02:27:55.033Z,100964.82
2023-12-15T02:30:26.424Z,100967.77
2023-12-15T02:32:57.856Z,100973.88
2023-12-15T02:35:29.513Z,100977.51
2023-12-15T02:38:01.970Z,100984.99
2023-12-15T02:40:33.302Z,100988.52
2023-12-15T02:43:04.719Z,100992.05
2023-12-15T02:45:36.034Z,100995.08
2023-12-15T02:48:07.924Z,100999.59
2023-12-15T02:50:39.413Z,100994.61
2023-12-15T02:53:10.756Z,100979.48
2023-12-15T02:55:42.184Z,100985.30
2023-12-15T02:58:13.526Z,100986.48
2023-12-15T03:00:45.217Z,100978.64
2023-12-15T03:03:16.671Z,100982.85
2023-12-15T03:05:48.572Z,100978.26
2023-12-15T03:08:20.004Z,100977.58
2023-12-15T03:10:53.006Z,100981.52
2023-12-15T03:13:24.433Z,100983.14
2023-12-15T03:15:56.154Z,100984.88
2023-12-15T03:18:27.417Z,100984.81
2023-12-15T03:20:58.740Z,100985.29
2023-12-15T03:23:30.094Z,100985.89
2023-12-15T03:26:01.719Z,100990.47
2023-12-15T03:28:33.413Z,100996.80
2023-12-15T03:31:04.789Z,101003.64
2023-12-15T03:33:38.376Z,101004.33
2023-12-15T03:36:11.190Z,101006.96
2023-12-15T03:38:42.444Z,101008.64
2023-12-15T03:41:14.232Z,101014.77
2023-12-15T03:43:45.600Z,101017.01
2023-12-15T03:46:16.868Z,101020.89
2023-12-15T03:48:48.168Z,101020.94
2023-12-15T03:51:19.635Z,101021.74
2023-12-15T03:53:51.590Z,101022.92
2023-12-15T03:56:28.164Z,101016.36
2023-12-15T03:59:00.379Z,101017.00
2023-12-15T04:01:32.031Z,101018.89
2023-12-15T04:04:03.322Z,101024.92
2023-12-15T04:06:34.679Z,101020.44
2023-12-15T04:09:06.070Z,101015.89
2023-12-15T04:11:37.460Z,101016.34
2023-12-15T04:14:10.374Z,101026.71
2023-12-15T04:16:43.257Z,101032.31
2023-12-15T04:19:14.677Z,101034.04
2023-12-15T04:21:46.104Z,101032.98
2023-12-15T04:24:17.714Z,101035.20
2023-12-15T04:26:49.176Z,101039.67
2023-12-15T04:29:20.510Z,101033.38
2023-12-15T04:31:51.948Z,101041.86
2023-12-15T04:34:23.188Z,101047.58
2023-12-15T04:36:54.486Z,101057.50
2023-12-15T04:39:25.916Z,101068.73
2023-12-15T04:41:57.260Z,101069.65
2023-12-15T04:44:30.051Z,101071.85
2023-12-15T04:47:01.564Z,101072.21
2023-12-15T04:49:32.803Z,101075.14
2023-12-15T04:52:04.147Z,101083.48
2023-12-15T04:54:35.512Z,101081.69
2023-12-15T04:57:07.171Z,101075.98
2023-12-15T04:59:41.478Z,101079.65
2023-12-15T05:02:12.927Z,101082.84
2023-12-15T05:04:44.211Z,101087.09
2023-12-15T05:07:15.470Z,101094.67
2023-12-15T05:09:49.891Z,101099.76
2023-12-15T05:12:21.962Z,101101.73
2023-12-15T05:14:53.223Z,101107.03
2023-12-15T05:17:27.208Z,101104.30
2023-12-15T05:19:58.996Z,101100.09
2023-12-15T05:22:30.867Z,101103.67
2023-12-15T05:25:02.155Z,101105.48
2023-12-15T05:27:33.418Z,101108.39
2023-12-15T05:30:05.465Z,101103.45
2023-12-15T05:32:36.835Z,101098.83
2023-12-15T05:35:09.418Z,101104.63
2023-12-15T05:37:40.813Z,101108.49
2023-12-15T05:40:15.236Z,101110.19
2023-12-15T05:42:46.687Z,101115.30
2023-12-15T05:45:18.113Z,101119.45
2023-12-15T05:47:51.025Z,101125.71
2023-12-15T05:50:23.085Z,101133.89
2023-12-15T05:52:55.058Z,101137.30
2023-12-15T05:55:26.289Z,101134.38
2023-12-15T05:57:57.544Z,101131.56
2023-12-15T06:00:28.770Z,101140.35
2023-12-15T06:03:00.009Z,101139.70
2023-12-15T06:05:35.521Z,101130.35
2023-12-15T06:08:07.677Z,101134.88
2023-12-15T06:10:38.922Z,101132.25
2023-12-15T06:13:10.842Z,101132.90
2023-12-15T06:15:42.245Z,101133.67
2023-12-15T06:18:13.508Z,101129.02
2023-12-15T06:20:44.926Z,101133.89
2023-12-15T06:23:16.653Z,101141.55
2023-12-15T06:25:48.015Z,101146.27
2023-12-15T06:28:19.283Z,101151.30
2023-12-15T06:30:50.909Z,101158.04
2023-12-15T06:33:22.258Z,101151.27
2023-12-15T06:35:53.621Z,101153.50
2023-12-15T06:38:24.905Z,101159.42
2023-12-15T06:40:56.248Z,101163.73
2023-12-15T06:43:27.741Z,101157.45
2023-12-15T06:45:59.027Z,101163.45
2023-12-15T06:48:30.493Z,101164.20
2023-12-15T06:51:02.148Z,101165.70
2023-12-15T06:53:33.562Z,101176.48
2023-12-15T06:56:05.450Z,101179.80
2023-12-15T06:58:36.832Z,101187.98
2023-12-15T07:01:09.550Z,101191.33
2023-12-15T07:03:40.966Z,101195.20
2023-12-15T07:06:12.477Z,101195.45
2023-12-15T07:08:44.364Z,101190.08
2023-12-15T07:11:15.676Z,101193.55
2023-12-15T07:13:47.278Z,101201.50
2023-12-15T07:16:19.197Z,101200.20
2023-12-15T07:18:50.575Z,101213.41
2023-12-15T07:21:22.040Z,101214.11
2023-12-15T07:23:53.462Z,101218.23
2023-12-15T07:26:24.913Z,101222.36
2023-12-15T07:28:56.320Z,101224.52
2023-12-15T07:31:27.627Z,101226.45
2023-12-15T07:33:58.916Z,101233.42
2023-12-15T07:36:30.332Z,101243.70
2023-12-15T07:39:01.579Z,101243.44
2023-12-15T07:41:32.890Z,101240.05
2023-12-15T07:44:04.393Z,101244.42
2023-12-15T07:46:36.056Z,101239.33
2023-12-15T07:49:07.958Z,101235.96
2023-12-15T07:51:39.896Z,101241.25
2023-12-15T07:54:11.173Z,101243.01
2023-12-15T07:56:42.751Z,101246.03
2023-12-15T07:59:14.494Z,101249.44
2023-12-15T08:01:52.606Z,101252.80
2023-12-15T08:04:23.843Z,101250.42
2023-12-15T08:06:55.111Z,101255.95
2023-12-15T08:09:26.998Z,101253.63
2023-12-15T08:11:58.446Z,101249.90
2023-12-15T08:14:29.898Z,101257.62
2023-12-15T08:17:01.673Z,101266.87
2023-12-15T08:19:33.168Z,101266.44
2023-12-15T08:22:04.857Z,101271.30
2023-12-15T08:24:36.144Z,101277.88
2023-12-15T08:27:07.724Z,101288.39
2023-12-15T08:29:39.081Z,101293.30
2023-12-15T08:32:10.490Z,101297.80
2023-12-15T08:34:43.734Z,101302.05
2023-12-15T08:37:15.004Z,101310.02
2023-12-15T08:39:46.178Z,101312.88
2023-12-15T08:42:17.389Z,101314.19
2023-12-15T08:44:48.657Z,101314.37
2023-12-15T08:47:19.942Z,101315.23
2023-12-15T08:49:51.212Z,101320.17
2023-12-15T08:52:22.464Z,101321.42
2023-12-15T08:54:53.741Z,101326.31
2023-12-15T08:57:25.084Z,101336.34
2023-12-15T08:59:56.716Z,101334.30
2023-12-15T09:02:28.118Z,101333.81
2023-12-15T09:05:03.712Z,101339.34
2023-12-15T09:07:42.612Z,101343.60
2023-12-15T09:10:14.432Z,101351.95
2023-12-15T09:12:45.765Z,101363.45
2023-12-15T09:15:18.101Z,101363.27
2023-12-15T09:17:50.130Z,101363.38
2023-12-15T09:20:22.214Z,101361.28
2023-12-15T09:22:55.330Z,101365.16
2023-12-15T09:25:25.393Z,101371.58
2023-12-15T09:27:57.006Z,101381.77
2023-12-15T09:30:28.331Z,101379.90
2023-12-15T09:32:59.841Z,101382.79
2023-12-15T09:35:31.346Z,101386.58
2023-12-15T09:38:04.571Z,101389.01
2023-12-15T09:40:34.647Z,101390.56
2023-12-15T09:43:06.062Z,101390.31
2023-12-15T09:45:37.350Z,101395.37
2023-12-15T09:48:12.279Z,101400.26
2023-12-15T09:50:52.225Z,101400.42
2023-12-15T09:53:25.232Z,101402.41
2023-12-15T09:55:57.115Z,101405.37
2023-12-15T09:58:28.568Z,101409.76
2023-12-15T10:01:00.068Z,101417.41
2023-12-15T10:03:31.552Z,101424.94
2023-12-15T10:06:03.119Z,101427.36
2023-12-15T10:08:57.653Z,101437.14
2023-12-15T10:11:36.014Z,101439.17
2023-12-15T10:14:08.798Z,101444.42
2023-12-15T10:16:41.176Z,101445.17
2023-12-15T10:19:13.012Z,101445.05
2023-12-15T10:21:44.767Z,101445.81
2023-12-15T10:24:24.168Z,101450.80
2023-12-15T10:26:55.534Z,101454.43
2023-12-15T10:29:26.934Z,101460.41
2023-12-15T10:31:58.506Z,101459.27
2023-12-15T10:34:30.972Z,101459.33
2023-12-15T10:37:03.485Z,101454.91
2023-12-15T10:39:35.033Z,101456.45
2023-12-15T10:42:08.745Z,101456.76
2023-12-15T10:44:41.868Z,101456.41
2023-12-15T10:47:13.408Z,101465.29
2023-12-15T10:49:52.552Z,101469.42
2023-12-15T10:52:27.454Z,101458.63
2023-12-15T10:55:00.209Z,101462.92
2023-12-15T10:57:32.959Z,101462.70
2023-12-15T11:00:06.836Z,101472.27
2023-12-15T11:02:40.316Z,101474.09
2023-12-15T11:05:12.330Z,101470.77
2023-12-15T11:07:44.506Z,101468.39
2023-12-15T11:10:18.516Z,101457.93
2023-12-15T11:12:49.822Z,101462.36
2023-12-15T11:15:22.780Z,101465.90
2023-12-15T11:17:59.698Z,101469.20
2023-12-15T11:20:43.856Z,101474.80
2023-12-15T11:23:16.132Z,101472.35
2023-12-15T11:26:01.997Z,101471.29
2023-12-15T11:28:34.511Z,101470.17
2023-12-15T11:31:24.915Z,101469.67
2023-12-15T11:33:56.940Z,101477.04
2023-12-15T11:36:32.097Z,101481.50
2023-12-15T11:39:03.680Z,101471.73
2023-12-15T11:41:35.578Z,101477.20
2023-12-15T11:44:08.140Z,101476.94
2023-12-15T11:46:39.488Z,101476.63
2023-12-15T11:49:11.526Z,101483.15
2023-12-15T11:51:43.720Z,101481.61
2023-12-15T11:54:14.991Z,101480.48
2023-12-15T11:56:46.877Z,101477.61
2023-12-15T11:59:18.256Z,101477.17
2023-12-15T12:01:50.049Z,101477.84
2023-12-15T12:04:22.038Z,101481.23
2023-12-15T12:06:54.976Z,101485.27
2023-12-15T12:09:26.789Z,101490.40
2023-12-15T12:11:58.685Z,101497.46
2023-12-15T12:14:30.061Z,101493.36
2023-12-15T12:17:01.638Z,101494.96
2023-12-15T12:19:43.041Z,101492.12
2023-12-15T12:22:15.167Z,101489.67
2023-12-15T12:24:46.495Z,101487.23
2023-12-15T12:27:17.875Z,101492.14
2023-12-15T12:29:49.467Z,101488.91
2023-12-15T12:32:22.604Z,101493.84
2023-12-15T12:34:54.118Z,101502.05
2023-12-15T12:37:25.427Z,101504.67
2023-12-15T12:39:57.035Z,101507.52
2023-12-15T12:42:28.750Z,101498.19
2023-12-15T12:45:00.485Z,101503.48
2023-12-15T12:47:33.580Z,101508.67
2023-12-15T12:50:07.454Z,101509.89
2023-12-15T12:52:39.124Z,101509.60
2023-12-15T12:55:11.566Z,101518.77
2023-12-15T12:57:42.933Z,101525.15
2023-12-15T13:00:17.361Z,101529.92
2023-12-15T13:02:49.093Z,101532.77
2023-12-15T13:05:20.767Z,101536.42
2023-12-15T13:07:52.074Z,101539.48
2023-12-15T13:10:23.446Z,101539.50
2023-12-15T13:12:56.798Z,101536.85
2023-12-15T13:15:28.597Z,101533.67
2023-12-15T13:18:01.221Z,101524.15
2023-12-15T13:20:33.023Z,101519.17
2023-12-15T13:23:05.287Z,101520.27
2023-12-15T13:25:36.775Z,101519.18
2023-12-15T13:28:09.390Z,101524.44
2023-12-15T13:30:41.686Z,101527.23
2023-12-15T13:33:13.278Z,101530.86
2023-12-15T13:35:44.814Z,101533.25
2023-12-15T13:38:17.224Z,101527.02
2023-12-15T13:40:48.918Z,101539.27
2023-12-15T13:43:20.587Z,101540.89
2023-12-15T13:45:57.856Z,101533.38
2023-12-15T13:48:33.805Z,101527.70
2023-12-15T13:51:05.739Z,101525.33
2023-12-15T13:53:37.106Z,101523.80
2023-12-15T13:56:09.983Z,101521.46
2023-12-15T13:58:41.411Z,101527.11
2023-12-15T14:01:12.706Z,101527.71
2023-12-15T14:03:44.722Z,101533.52
2023-12-15T14:06:16.468Z,101539.85
2023-12-15T14:08:48.367Z,101540.35
2023-12-15T14:11:19.833Z,101545.70
2023-12-15T14:13:51.193Z,101541.95
2023-12-15T14:16:34.259Z,101538.92
2023-12-15T14:19:15.149Z,101535.52
2023-12-15T14:21:48.320Z,101522.45
2023-12-15T14:24:19.966Z,101516.74
2023-12-15T14:26:51.411Z,101509.00
2023-12-15T14:29:22.985Z,101504.46
2023-12-15T14:31:54.336Z,101496.95
2023-12-15T14:34:26.031Z,101509.40
2023-12-15T14:36:57.652Z,101519.32
2023-12-15T14:39:29.134Z,101529.04
2023-12-15T14:42:00.663Z,101535.77
2023-12-15T14:44:32.100Z,101548.69
2023-12-15T14:47:04.482Z,101548.91
2023-12-15T14:49:36.098Z,101553.27
2023-12-15T14:52:08.580Z,101565.36
2023-12-15T14:54:39.851Z,101575.89
2023-12-15T14:57:11.154Z,101580.62
2023-12-15T14:59:42.460Z,101580.91
2023-12-15T15:02:14.578Z,101583.83
2023-12-15T15:04:46.127Z,101575.94
2023-12-15T15:07:19.850Z,101579.67
2023-12-15T15:09:53.073Z,101579.65
2023-12-15T15:12:24.420Z,101578.79
2023-12-15T15:14:55.775Z,101586.35
2023-12-15T15:17:28.973Z,101597.40
2023-12-15T15:20:00.243Z,101604.09
2023-12-15T15:22:31.673Z,101612.14
2023-12-15T15:25:04.774Z,101611.88
2023-12-15T15:27:36.316Z,101612.20
2023-12-15T15:30:09.833Z,101610.11
2023-12-15T15:32:41.873Z,101612.86
2023-12-15T15:35:13.702Z,101621.36
2023-12-15T15:37:45.137Z,101626.97
2023-12-15T15:40:16.882Z,101632.52
2023-12-15T15:42:50.381Z,101637.64
2023-12-15T15:45:22.121Z,101637.44
2023-12-15T15:47:55.562Z,101639.52
2023-12-15T15:50:27.008Z,101638.26
2023-12-15T15:52:58.603Z,101630.66
2023-12-15T15:55:29.886Z,101644.16
2023-12-15T15:58:01.182Z,101649.42
2023-12-15T16:00:32.561Z,101659.13
2023-12-15T16:03:05.105Z,101663.69
2023-12-15T16:05:36.446Z,101661.41
2023-12-15T16:08:08.408Z,101664.39
2023-12-15T16:10:44.934Z,101666.77
2023-12-15T16:13:17.300Z,101668.77
2023-12-15T16:15:48.891Z,101672.17
2023-12-15T16:18:21.213Z,101665.81
2023-12-15T16:20:52.766Z,101659.08
2023-12-15T16:23:24.628Z,101664.33
2023-12-15T16:25:55.952Z,101667.52
2023-12-15T16:28:27.415Z,101673.53
2023-12-15T16:30:58.930Z,101673.70
2023-12-15T16:33:31.418Z,101679.52
2023-12-15T16:36:04.196Z,101685.29
2023-12-15T16:38:36.059Z,101690.84
2023-12-15T16:41:07.573Z,101689.20
2023-12-15T16:43:39.506Z,101683.34
2023-12-15T16:46:10.844Z,101678.13
2023-12-15T16:48:46.057Z,101689.19
2023-12-15T16:51:17.554Z,101697.03
2023-12-15T16:53:49.277Z,101697.33
2023-12-15T16:56:20.823Z,101701.00
2023-12-15T16:58:52.306Z,101704.89
2023-12-15T17:01:23.913Z,101715.73
2023-12-15T17:03:56.496Z,101714.85
2023-12-15T17:06:28.597Z,101711.23
2023-12-15T17:09:00.272Z,101720.30
2023-12-15T17:11:32.311Z,101730.16
2023-12-15T17:14:04.067Z,101741.05
2023-12-15T17:16:35.664Z,101746.84
2023-12-15T17:19:08.593Z,101750.86
2023-12-15T17:21:38.944Z,101750.80
2023-12-15T17:24:10.619Z,101747.54
2023-12-15T17:26:42.351Z,101739.14
2023-12-15T17:29:14.403Z,101734.95
2023-12-15T17:31:47.999Z,101733.31
2023-12-15T17:34:19.610Z,101730.29
2023-12-15T17:36:57.005Z,101726.11
2023-12-15T17:39:28.964Z,101724.54
2023-12-15T17:42:00.585Z,101726.52
2023-12-15T17:44:32.180Z,101723.09
2023-12-15T17:47:04.370Z,101719.15
2023-12-15T17:49:35.989Z,101723.73
2023-12-15T17:52:08.258Z,101720.13
2023-12-15T17:54:39.557Z,101714.59
2023-12-15T17:57:10.793Z,101711.30
2023-12-15T17:59:42.071Z,101721.86
2023-12-15T18:02:13.439Z,101730.83
2023-12-15T18:04:44.942Z,101733.83
2023-12-15T18:07:16.386Z,101736.73
2023-12-15T18:09:47.768Z,101739.41
2023-12-15T18:12:20.075Z,101732.24
2023-12-15T18:14:51.342Z,101725.70
2023-12-15T18:17:23.423Z,101732.89
2023-12-15T18:19:54.799Z,101741.34
2023-12-15T18:22:26.129Z,101747.47
2023-12-15T18:24:57.333Z,101757.05
2023-12-15T18:27:28.642Z,101765.48
2023-12-15T18:30:00.907Z,101761.02
2023-12-15T18:32:32.341Z,101769.16
2023-12-15T18:35:03.939Z,101775.57
2023-12-15T18:37:35.581Z,101788.73
2023-12-15T18:40:09.794Z,101789.32
2023-12-15T18:42:41.243Z,101783.56
2023-12-15T18:45:13.734Z,101782.65
2023-12-15T18:47:46.451Z,101784.16
2023-12-15T18:50:17.921Z,101789.38
2023-12-15T18:52:49.200Z,101785.49
2023-12-15T18:55:20.507Z,101781.55
2023-12-15T18:57:52.821Z,101776.44
2023-12-15T19:00:24.663Z,101779.23
2023-12-15T19:02:56.196Z,101781.06
2023-12-15T19:05:27.772Z,101781.69
2023-12-15T19:07:59.216Z,101773.65
2023-12-15T19:10:31.148Z,101771.29
2023-12-15T19:13:02.401Z,101776.19
2023-12-15T19:15:34.003Z,101782.23
2023-12-15T19:18:11.002Z,101787.27
2023-12-15T19:20:42.802Z,101785.66
2023-12-15T19:23:14.059Z,101779.25
2023-12-15T19:25:46.242Z,101791.38
2023-12-15T19:28:17.574Z,101794.98
2023-12-15T19:30:49.089Z,101795.97
2023-12-15T19:33:20.688Z,101804.27
2023-12-15T19:35:52.190Z,101807.70
2023-12-15T19:38:23.838Z,101808.46
2023-12-15T19:40:55.118Z,101805.35
2023-12-15T19:43:29.886Z,101810.98
2023-12-15T19:46:01.369Z,101810.78
2023-12-15T19:48:32.976Z,101815.33
2023-12-15T19:51:04.549Z,101810.20
2023-12-15T19:53:38.366Z,101809.08
2023-12-15T19:56:11.006Z,101805.95
2023-12-15T19:58:42.286Z,101826.59
2023-12-15T20:01:23.073Z,101830.41
2023-12-15T20:03:55.285Z,101820.56
2023-12-15T20:06:29.200Z,101814.92
2023-12-15T20:09:01.062Z,101828.30
2023-12-15T20:11:35.101Z,101832.98
2023-12-15T20:14:07.553Z,101844.28
2023-12-15T20:16:39.194Z,101839.83
2023-12-15T20:19:12.216Z,101839.88
2023-12-15T20:21:43.708Z,101841.02
2023-12-15T20:24:15.678Z,101835.33
2023-12-15T20:26:47.302Z,101831.62
2023-12-15T20:29:18.577Z,101833.63
2023-12-15T20:31:49.898Z,101837.88
2023-12-15T20:34:21.518Z,101843.81
2023-12-15T20:36:53.069Z,101854.73
2023-12-15T20:39:24.429Z,101863.71
2023-12-15T20:41:55.841Z,101856.76
2023-12-15T20:44:27.666Z,101863.08
2023-12-15T20:46:59.129Z,101872.77
2023-12-15T20:49:30.809Z,101878.21
2023-12-15T20:52:02.477Z,101881.27
2023-12-15T20:54:33.987Z,101874.36
2023-12-15T20:57:05.889Z,101895.48
2023-12-15T20:59:40.279Z,101918.23
2023-12-15T21:02:11.714Z,101929.84
2023-12-15T21:04:43.071Z,101925.93
2023-12-15T21:07:14.457Z,101927.98
2023-12-15T21:09:45.723Z,101934.86
2023-12-15T21:12:17.106Z,101924.99
2023-12-15T21:14:48.363Z,101907.42
2023-12-15T21:17:19.625Z,101885.52
2023-12-15T21:19:52.415Z,101858.13
2023-12-15T21:22:22.427Z,101856.84
2023-12-15T21:24:53.915Z,101860.45
2023-12-15T21:27:25.587Z,101868.79
2023-12-15T21:29:58.499Z,101875.06
2023-12-15T21:32:29.785Z,101876.88
2023-12-15T21:35:01.529Z,101888.02
2023-12-15T21:37:33.046Z,101886.45
2023-12-15T21:40:05.731Z,101881.31
2023-12-15T21:42:38.375Z,101876.80
2023-12-15T21:45:11.221Z,101887.46
2023-12-15T21:47:43.010Z,101892.97
2023-12-15T21:50:14.934Z,101902.67
2023-12-15T21:52:46.781Z,101904.41
2023-12-15T21:55:19.286Z,101905.63
2023-12-15T21:57:51.569Z,101895.06
2023-12-15T22:00:25.176Z,101889.64
2023-12-15T22:02:58.889Z,101890.53
2023-12-15T22:05:30.525Z,101879.80
2023-12-15T22:08:01.925Z,101878.90
2023-12-15T22:10:33.790Z,101877.29
2023-12-15T22:13:07.223Z,101871.23
2023-12-15T22:15:39.590Z,101873.08
2023-12-15T22:18:11.131Z,101877.30
2023-12-15T22:20:42.528Z,101879.21
2023-12-15T22:23:13.980Z,101891.58
2023-12-15T22:25:45.525Z,101892.83
2023-12-15T22:28:17.487Z,101894.30
2023-12-15T22:30:49.149Z,101892.14
2023-12-15T22:33:20.450Z,101895.55
2023-12-15T22:35:52.478Z,101908.16
2023-12-15T22:38:24.105Z,101914.79
2023-12-15T22:40:55.580Z,101915.56
2023-12-15T22:43:26.891Z,101915.38
2023-12-15T22:45:58.197Z,101913.05
2023-12-15T22:48:29.588Z,101916.20
2023-12-15T22:51:02.016Z,101920.95
2023-12-15T22:53:33.303Z,101917.72
2023-12-15T22:56:09.171Z,101923.02
2023-12-15T22:58:40.501Z,101926.61
2023-12-15T23:01:12.059Z,101924.90
2023-12-15T23:03:45.001Z,101932.84
2023-12-15T23:06:16.993Z,101935.58
2023-12-15T23:08:48.306Z,101937.50
2023-12-15T23:11:20.168Z,101931.33
2023-12-15T23:13:52.124Z,101926.23
2023-12-15T23:16:23.431Z,101927.64
2023-12-15T23:18:54.867Z,101925.76
2023-12-15T23:21:29.265Z,101922.45
2023-12-15T23:24:01.146Z,101927.44
2023-12-15T23:26:36.376Z,101931.48
2023-12-15T23:29:08.000Z,101936.17
2023-12-15T23:31:39.930Z,101939.00
2023-12-15T23:34:11.623Z,101940.63
2023-12-15T23:36:43.345Z,101934.36
2023-12-15T23:39:14.722Z,101938.05
2023-12-15T23:41:46.030Z,101931.94
2023-12-15T23:44:17.295Z,101933.43
2023-12-15T23:46:48.555Z,101936.69
2023-12-15T23:49:19.848Z,101936.81
2023-12-15T23:51:51.435Z,101941.64
2023-12-15T23:54:22.759Z,101941.39
2023-12-15T23:56:55.277Z,101940.81
2023-12-15T23:59:26.756Z,101943.98
